Airfield :
LOGIN :

Register | Disclaimer

   EN    FR    IT 

 










Legend :    VFR   Marginal VFR   IFR   Intensive IFR   Very Intensive IFR
Visi :
Ceiling :
>= 8 km
>= 3000ft
5 to 8 km
1000 to 3000 ft
1500m to 5 km
500 to 1000 ft
800 to 1500m
200 to 500 ft
< 800m
< 200 ft
Symbols :   Thunderstorms  Fog  Heavy snow  Heavy precipitations  Wind > 20 kt
SIGMETs :     Misc.  Thunderstorms  Icing  Turbulence  Mountain Waves  Volcanic Ashes






- Airport Elevation : 1260 ft
- IATA code : LDE


LFBT - Tarbes / Ossun

CURRENT METAR :
  • 120600Z AUTO 24011KT 9999 -RA FEW034/// BKN046/// BKN058/// ///TCU 06/05 Q1015 TEMPO 4000 RA BKN010

EXPIRED METARs :
  • 120530Z AUTO 25011KT 9999 RA BKN042/// OVC054/// ///TCU 07/05 Q1016 BECMG 4000 -RA BKN012 OVC040
  • 120500Z AUTO 24009KT 9999 -RA FEW037 SCT045 BKN052 06/05 Q1016 BECMG 4000 -RA BKN012 OVC040
  • 120430Z AUTO 25010KT 9999 -RA FEW030 BKN041 OVC052 06/05 Q1016 BECMG 4000 -RA BKN012 OVC040
  • 120400Z AUTO 24012KT 9999 -RA FEW031/// BKN058/// OVC072/// ///TCU 07/05 Q1016 BECMG 4000 -RA BKN012 OVC040
  • 120330Z AUTO 24010KT 9999 -RA SCT029/// BKN038/// BKN050/// ///TCU 07/05 Q1016 BECMG 4000 -RA BKN012 OVC040

TAF TAF LFBT
Valid from the 12 at 06:00 until the 13 at 06:00 UTC


120500Z 1206/1306 27016KT 9999 -RA BKN025 OVC040
TEMPO 1206/1209 4000 RA BKN010
BECMG 1209/1211 9999 NSW FEW030 BKN050
TEMPO 1213/1306 27015G25KT RA SCT020 BKN030
PROB40
TEMPO 1216/1306 27020G37KT
PROB30
TEMPO 1304/1306 27030G45KT



MET'MAP, your aeronautical weather chart ! - Copyright ORBIFLY December 2007 - Disclaimer

ORBIFLY MET'MAP TEAM :

Programming & Development : Alexandra Zaïnal
Concept & original design : Baudouin d'Aumeries
Assistance for programming : Marc-Olivier Méhu
Technical & hardware support : Manuel Goepfert

Contact : metmap@orbifly.com




SOURCES & CREDITS :

   NOAA